Time;durP1;ratioP1;P1;durP2;ratioP2;P2;SDS_P1;SDS_P2;PMS_P1;PMS_P2;Temp;Humidity;BMP_temperature;BMP_pressure;BME280_temperature;BME280_humidity;BME280_pressure;Samples;Min_cycle;Max_cycle;Signal;HPM_P1;HPM_P2
2023/11/20 00:00:52;;;;;;;23.20;3.00;;;;;;;;;;5050289;28;20466;-64
2023/11/20 00:03:18;;;;;;;16.25;2.35;;;;;;;;;;5044264;28;20051;-64
2023/11/20 00:05:44;;;;;;;22.00;3.10;;;;;;;;;;5049214;28;20470;-64
2023/11/20 00:08:10;;;;;;;14.70;2.92;;;;;;;;;;5040673;28;20361;-64
2023/11/20 00:10:38;;;;;;;19.83;2.70;;;;;;;;;;5051703;28;20029;-65
2023/11/20 00:13:08;;;;;;;23.40;3.00;;;;;;;;;;5049763;28;20029;-65
2023/11/20 00:15:37;;;;;;;18.53;3.10;;;;;;;;;;5050206;28;20021;-64
2023/11/20 00:18:05;;;;;;;15.80;2.70;;;;;;;;;;5049198;28;20354;-64
2023/11/20 00:20:31;;;;;;;11.48;2.03;;;;;;;;;;5050213;28;20021;-64
2023/11/20 00:22:57;;;;;;;11.02;2.00;;;;;;;;;;5050128;28;20036;-64
2023/11/20 00:25:23;;;;;;;17.75;2.58;;;;;;;;;;5048982;28;20082;-64
2023/11/20 00:27:50;;;;;;;13.10;2.50;;;;;;;;;;5050240;28;20100;-64
2023/11/20 00:30:16;;;;;;;11.75;2.10;;;;;;;;;;5047438;28;20052;-64
2023/11/20 00:32:42;;;;;;;12.55;3.15;;;;;;;;;;5051139;28;20078;-64
2023/11/20 00:35:10;;;;;;;11.65;2.35;;;;;;;;;;5053896;28;20091;-64
2023/11/20 00:37:36;;;;;;;14.52;3.00;;;;;;;;;;5055112;28;20025;-64
2023/11/20 00:40:04;;;;;;;14.52;2.80;;;;;;;;;;5040944;28;20112;-64
2023/11/20 00:42:30;;;;;;;12.90;2.70;;;;;;;;;;5035145;28;20030;-64
2023/11/20 00:44:56;;;;;;;11.52;2.10;;;;;;;;;;5034808;28;20021;-64
2023/11/20 00:47:22;;;;;;;17.50;2.17;;;;;;;;;;5033511;28;20192;-64
2023/11/20 00:49:48;;;;;;;11.98;2.55;;;;;;;;;;5035297;28;20029;-64
2023/11/20 00:52:14;;;;;;;11.00;1.95;;;8.50;99.90;;;;;;5033276;28;20025;-64
2023/11/20 00:54:39;;;;;;;15.88;2.63;;;8.40;99.90;;;;;;5034827;28;20072;-64
2023/11/20 00:57:05;;;;;;;18.08;3.13;;;8.30;99.90;;;;;;5033804;28;20065;-64
2023/11/20 00:59:30;;;;;;;14.32;2.10;;;8.20;99.90;;;;;;5034727;28;20095;-64
2023/11/20 01:01:56;;;;;;;17.85;2.85;;;8.10;99.90;;;;;;5034236;28;20036;-64
2023/11/20 01:04:22;;;;;;;8.57;2.00;;;8.00;99.90;;;;;;5047269;28;20525;-64
2023/11/20 01:06:49;;;;;;;11.45;2.40;;;7.90;99.90;;;;;;5054632;28;20405;-64
2023/11/20 01:09:15;;;;;;;12.77;2.50;;;7.90;99.90;;;;;;5057037;28;20107;-64
2023/11/20 01:11:42;;;;;;;14.65;1.98;;;7.90;99.90;;;;;;5074027;28;20425;-64
2023/11/20 01:14:08;;;;;;;13.57;2.58;;;7.90;99.90;;;;;;5073755;28;20043;-64
2023/11/20 01:16:33;;;;;;;11.07;2.17;;;7.90;99.90;;;;;;5073928;28;20124;-64
2023/11/20 01:18:59;;;;;;;17.48;2.85;;;7.90;99.90;;;;;;5055879;28;20032;-64
2023/11/20 01:21:25;;;;;;;19.00;2.35;;;7.80;99.90;;;;;;5073273;28;20035;-64
2023/11/20 01:23:50;;;;;;;13.07;2.00;;;7.80;99.90;;;;;;5074196;28;20094;-64
2023/11/20 01:26:16;;;;;;;13.30;2.63;;;7.80;99.90;;;;;;5063640;28;20029;-64
2023/11/20 01:28:41;;;;;;;17.40;3.05;;;7.80;99.90;;;;;;5073801;28;20436;-64
2023/11/20 01:31:07;;;;;;;18.10;2.65;;;7.80;99.90;;;;;;5072231;28;20112;-64
2023/11/20 01:33:32;;;;;;;18.80;2.28;;;7.80;99.90;;;;;;5063042;28;20021;-64
2023/11/20 01:35:58;;;;;;;17.85;2.42;;;7.90;99.90;;;;;;5033877;28;20476;-64
2023/11/20 01:38:23;;;;;;;15.23;2.70;;;8.00;99.90;;;;;;5033948;28;20038;-64
2023/11/20 01:40:53;;;;;;;18.02;2.90;;;8.10;99.90;;;;;;5032353;28;20105;-64
2023/11/20 01:43:19;;;;;;;12.68;2.13;;;8.30;99.90;;;;;;5066200;28;20497;-64
2023/11/20 01:45:45;;;;;;;13.13;2.22;;;8.30;99.90;;;;;;5073597;28;20037;-64
2023/11/20 01:48:11;;;;;;;12.95;1.92;;;8.40;99.90;;;;;;5072827;28;20029;-64
2023/11/20 01:50:36;;;;;;;15.43;2.95;;;8.50;99.90;;;;;;5073728;28;20050;-64
2023/11/20 01:53:04;;;;;;;13.30;2.10;;;8.60;99.90;;;;;;5072784;28;20025;-64
2023/11/20 01:55:30;;;;;;;12.13;2.20;;;8.70;99.90;;;;;;5073526;28;20028;-64
2023/11/20 01:57:56;;;;;;;13.68;1.90;;;8.70;99.90;;;;;;5064825;28;20021;-64
2023/11/20 02:00:22;;;;;;;13.40;2.97;;;8.80;99.90;;;;;;5072491;28;20029;-64
2023/11/20 02:02:49;;;;;;;11.75;1.95;;;8.80;99.90;;;;;;5073539;28;20064;-64
2023/11/20 02:05:15;;;;;;;8.77;1.92;;;8.80;99.90;;;;;;5034164;28;20029;-65
2023/11/20 02:07:41;;;;;;;9.80;2.22;;;8.80;99.90;;;;;;5047027;28;20079;-65
2023/11/20 02:10:07;;;;;;;14.23;2.25;;;8.90;99.90;;;;;;5052030;28;20031;-66
2023/11/20 02:12:37;;;;;;;16.27;1.95;;;8.90;99.90;;;;;;5053018;28;20025;-64
2023/11/20 02:15:06;;;;;;;11.77;2.50;;;9.00;99.90;;;;;;5058655;28;20097;-64
2023/11/20 02:17:34;;;;;;;17.02;2.88;;;9.00;99.90;;;;;;5054553;28;20453;-64
2023/11/20 02:20:00;;;;;;;15.18;2.22;;;9.00;99.90;;;;;;5072160;28;20032;-65
2023/11/20 02:22:26;;;;;;;15.40;2.63;;;9.10;99.90;;;;;;5072528;28;20423;-64
2023/11/20 02:24:51;;;;;;;13.70;1.80;;;9.10;99.90;;;;;;5073200;28;20044;-64
2023/11/20 02:27:32;;;;;;;13.45;2.70;;;9.10;99.90;;;;;;5071962;28;20074;-64
2023/11/20 02:30:01;;;;;;;9.75;2.08;;;9.10;99.90;;;;;;5071047;28;20019;-64
2023/11/20 02:32:28;;;;;;;15.45;2.63;;;9.10;99.90;;;;;;5065408;28;20032;-64
2023/11/20 02:34:54;;;;;;;9.38;1.98;;;9.10;99.90;;;;;;5051951;28;20385;-64
2023/11/20 02:37:19;;;;;;;10.25;2.10;;;9.10;99.90;;;;;;5052166;28;20104;-64
2023/11/20 02:39:51;;;;;;;15.63;2.65;;;9.10;99.90;;;;;;5052913;28;20025;-64
2023/11/20 02:42:18;;;;;;;11.40;2.33;;;9.10;99.90;;;;;;5046987;28;20029;-64
2023/11/20 02:44:45;;;;;;;11.50;2.20;;;9.10;99.90;;;;;;5032571;28;20104;-64
2023/11/20 02:47:11;;;;;;;11.98;1.98;;;9.10;99.90;;;;;;5031773;28;20076;-64
2023/11/20 02:49:37;;;;;;;14.88;3.17;;;9.10;99.90;;;;;;5063590;28;20480;-64
2023/11/20 02:52:07;;;;;;;8.90;1.95;;;9.10;99.90;;;;;;5071041;28;20179;-64
2023/11/20 02:54:33;;;;;;;9.82;1.65;;;9.10;99.90;;;;;;5071803;28;20493;-64
2023/11/20 02:57:00;;;;;;;15.65;2.63;;;9.10;99.90;;;;;;5071192;28;20028;-64
2023/11/20 02:59:27;;;;;;;13.25;2.10;;;9.20;99.90;;;;;;5071701;28;20036;-64
2023/11/20 03:01:53;;;;;;;19.20;2.85;;;9.20;99.90;;;;;;5071451;28;20025;-65
2023/11/20 03:04:19;;;;;;;10.77;1.95;;;9.20;99.90;;;;;;5056924;28;20025;-65
2023/11/20 03:06:45;;;;;;;7.78;1.40;;;9.30;99.90;;;;;;5051614;28;20021;-64
2023/11/20 03:09:12;;;;;;;15.43;2.50;;;9.20;99.90;;;;;;5050908;28;20075;-64
2023/11/20 03:11:38;;;;;;;14.40;2.53;;;9.30;99.90;;;;;;5051377;28;20443;-64
2023/11/20 03:14:03;;;;;;;8.35;1.80;;;9.30;99.90;;;;;;5051083;28;20126;-64
2023/11/20 03:16:30;;;;;;;11.10;1.77;;;9.20;99.90;;;;;;5051220;28;20139;-64
2023/11/20 03:18:57;;;;;;;8.57;2.28;;;9.30;99.90;;;;;;5051753;28;20028;-64
2023/11/20 03:21:24;;;;;;;6.68;1.63;;;9.20;99.90;;;;;;5053424;28;20036;-64
2023/11/20 03:23:49;;;;;;;9.50;2.45;;;9.20;99.90;;;;;;5071745;28;20369;-64
2023/11/20 03:26:24;;;;;;;12.18;2.20;;;9.20;99.90;;;;;;5070777;28;20021;-64
2023/11/20 03:28:50;;;;;;;14.05;2.70;;;9.20;99.90;;;;;;5072176;28;20075;-64
2023/11/20 03:31:17;;;;;;;9.73;1.52;;;9.30;99.90;;;;;;5070237;28;20036;-64
2023/11/20 03:33:45;;;;;;;10.20;1.70;;;9.30;99.90;;;;;;5062206;28;20068;-64
2023/11/20 03:36:11;;;;;;;5.90;1.30;;;9.30;99.90;;;;;;5050483;28;20371;-64
2023/11/20 03:38:37;;;;;;;10.90;2.00;;;9.30;99.90;;;;;;5044002;28;20104;-64
2023/11/20 03:41:02;;;;;;;8.65;2.10;;;9.30;99.90;;;;;;5042516;28;20037;-64
2023/11/20 03:43:28;;;;;;;13.48;2.72;;;9.30;99.90;;;;;;5032283;28;20080;-64
2023/11/20 03:45:55;;;;;;;11.10;2.10;;;9.40;99.90;;;;;;5042563;28;20457;-64
2023/11/20 03:48:20;;;;;;;14.60;1.98;;;9.50;99.90;;;;;;5070760;28;20028;-64
2023/11/20 03:50:46;;;;;;;16.08;2.58;;;9.60;99.90;;;;;;5071097;28;20043;-64
2023/11/20 03:53:12;;;;;;;14.63;2.13;;;9.60;99.90;;;;;;5070749;28;20067;-64
2023/11/20 03:55:37;;;;;;;11.27;2.15;;;9.70;99.90;;;;;;5071259;28;20056;-64
2023/11/20 03:58:03;;;;;;;11.20;2.17;;;9.80;99.90;;;;;;5070124;28;20527;-64
2023/11/20 04:00:32;;;;;;;12.55;2.10;;;9.80;99.90;;;;;;5070852;28;20035;-64
2023/11/20 04:02:59;;;;;;;11.32;2.10;;;9.90;99.90;;;;;;5064970;28;20033;-64
2023/11/20 04:05:24;;;;;;;15.45;2.22;;;10.00;99.90;;;;;;5043144;28;20251;-64
2023/11/20 04:07:50;;;;;;;13.00;2.40;;;10.10;99.90;;;;;;5040944;28;20512;-64
2023/11/20 04:10:16;;;;;;;11.60;2.13;;;10.00;99.90;;;;;;5049692;28;20378;-64
2023/11/20 04:12:45;;;;;;;10.32;1.80;;;10.00;99.90;;;;;;5051255;28;20025;-64
2023/11/20 04:15:11;;;;;;;13.90;2.17;;;10.00;99.90;;;;;;5049623;28;20076;-64
2023/11/20 04:17:37;;;;;;;9.38;2.13;;;10.00;99.90;;;;;;5050512;28;20448;-65
2023/11/20 04:20:03;;;;;;;10.52;1.90;;;10.00;99.90;;;;;;5048226;28;20021;-64
2023/11/20 04:22:29;;;;;;;13.00;2.47;;;10.00;99.90;;;;;;5064658;28;20033;-64
2023/11/20 04:24:55;;;;;;;18.55;2.70;;;10.10;99.90;;;;;;5066723;28;20554;-64
2023/11/20 04:27:20;;;;;;;10.32;2.00;;;10.10;99.90;;;;;;5049005;28;20123;-64
2023/11/20 04:29:46;;;;;;;11.68;2.95;;;10.10;99.90;;;;;;5050531;28;20140;-64
2023/11/20 04:32:11;;;;;;;9.68;2.35;;;10.00;99.90;;;;;;5030322;28;20376;-64
2023/11/20 04:34:37;;;;;;;7.65;2.03;;;10.00;99.90;;;;;;5039100;28;20100;-64
2023/11/20 04:37:03;;;;;;;11.50;2.33;;;10.00;99.90;;;;;;5048649;28;20048;-64
2023/11/20 04:39:28;;;;;;;9.80;2.38;;;9.90;99.90;;;;;;5047748;28;20044;-64
2023/11/20 04:41:54;;;;;;;17.27;2.90;;;9.80;99.90;;;;;;5069497;28;20029;-64
2023/11/20 04:44:20;;;;;;;14.02;2.80;;;9.70;99.90;;;;;;5069687;28;20619;-63
2023/11/20 04:46:45;;;;;;;13.25;2.80;;;9.70;99.90;;;;;;5068972;28;20515;-64
2023/11/20 04:49:12;;;;;;;16.45;3.05;;;9.60;99.90;;;;;;5069189;28;20151;-64
2023/11/20 04:51:37;;;;;;;14.07;3.05;;;9.60;99.90;;;;;;5069578;28;20119;-64
2023/11/20 04:54:03;;;;;;;11.27;3.33;;;9.60;99.90;;;;;;5069511;28;20100;-64
2023/11/20 04:56:29;;;;;;;17.73;3.25;;;9.60;99.90;;;;;;5057620;28;20503;-64
2023/11/20 04:58:54;;;;;;;12.95;2.80;;;9.60;99.90;;;;;;5070135;28;20450;-64
2023/11/20 05:01:22;;;;;;;18.10;2.97;;;9.70;99.90;;;;;;5069180;28;20025;-64
2023/11/20 05:03:48;;;;;;;13.95;3.25;;;9.80;99.90;;;;;;5057297;28;20025;-64
2023/11/20 05:06:13;;;;;;;13.10;2.30;;;9.90;99.90;;;;;;5028879;28;20116;-64
2023/11/20 05:08:39;;;;;;;12.60;2.58;;;9.90;99.90;;;;;;5029291;28;20355;-63
2023/11/20 05:11:04;;;;;;;8.63;2.03;;;10.00;99.90;;;;;;5029407;28;20077;-64
2023/11/20 05:13:30;;;;;;;11.23;2.35;;;10.00;99.90;;;;;;5066757;28;20037;-64
2023/11/20 05:15:56;;;;;;;14.13;2.00;;;10.00;99.90;;;;;;5069913;28;20112;-64
2023/11/20 05:18:21;;;;;;;12.05;1.88;;;9.90;99.90;;;;;;5069914;28;20049;-64
2023/11/20 05:20:47;;;;;;;10.57;2.13;;;9.90;99.90;;;;;;5073276;28;20025;-64
2023/11/20 05:23:13;;;;;;;10.93;2.50;;;9.90;99.90;;;;;;5073172;28;20073;-64
2023/11/20 05:25:39;;;;;;;12.15;2.22;;;9.80;99.90;;;;;;5064396;28;20040;-64
2023/11/20 05:28:04;;;;;;;11.85;2.00;;;9.80;99.90;;;;;;5055416;28;20034;-64
2023/11/20 05:30:30;;;;;;;11.77;1.80;;;9.70;99.90;;;;;;5064218;28;20028;-64
2023/11/20 05:32:56;;;;;;;10.85;1.98;;;9.70;99.90;;;;;;5073522;28;20028;-64
2023/11/20 05:35:22;;;;;;;12.05;2.00;;;9.70;99.90;;;;;;5049419;28;20029;-64
2023/11/20 05:37:48;;;;;;;14.23;2.53;;;9.70;99.90;;;;;;5053628;28;20036;-64
2023/11/20 05:40:14;;;;;;;12.48;2.05;;;9.70;99.90;;;;;;5052192;28;20051;-64
2023/11/20 05:42:40;;;;;;;10.23;2.17;;;9.70;99.90;;;;;;5053798;28;20103;-64
2023/11/20 05:45:07;;;;;;;9.60;2.58;;;9.70;99.90;;;;;;5051766;28;20055;-64
2023/11/20 05:47:32;;;;;;;10.13;2.28;;;9.70;99.90;;;;;;5066900;28;20020;-64
2023/11/20 05:49:58;;;;;;;9.55;1.83;;;9.70;99.90;;;;;;5073275;28;20035;-64
2023/11/20 05:52:25;;;;;;;11.93;2.42;;;9.70;99.90;;;;;;5072270;28;20082;-64
2023/11/20 05:54:51;;;;;;;12.52;1.95;;;9.70;99.90;;;;;;5054962;28;20029;-64
2023/11/20 05:57:17;;;;;;;11.13;3.17;;;9.70;99.90;;;;;;5051823;28;20585;-64
2023/11/20 05:59:46;;;;;;;14.50;3.38;;;9.70;99.90;;;;;;5035771;28;20028;-64
2023/11/20 06:02:12;;;;;;;17.05;3.08;;;9.80;99.90;;;;;;5031972;28;20446;-65
2023/11/20 06:04:37;;;;;;;11.95;2.78;;;9.70;99.90;;;;;;5052686;28;20067;-64
2023/11/20 06:07:03;;;;;;;16.17;2.50;;;9.70;99.90;;;;;;5051614;28;20101;-65
2023/11/20 06:09:28;;;;;;;14.88;2.45;;;9.70;99.90;;;;;;5053067;28;20033;-64
2023/11/20 06:11:54;;;;;;;11.73;2.58;;;9.70;99.90;;;;;;5052365;28;20037;-64
2023/11/20 06:14:19;;;;;;;14.75;2.20;;;9.70;99.90;;;;;;5051185;28;20553;-65
2023/11/20 06:16:48;;;;;;;12.65;2.15;;;9.80;99.90;;;;;;5052342;28;20061;-64
2023/11/20 06:19:14;;;;;;;10.00;2.72;;;9.80;99.90;;;;;;5051726;28;20033;-64
2023/11/20 06:21:47;;;;;;;10.65;1.98;;;9.90;99.90;;;;;;5052337;28;20382;-64
2023/11/20 06:24:14;;;;;;;11.05;2.15;;;10.00;99.90;;;;;;5051781;28;20082;-64
2023/11/20 06:26:40;;;;;;;13.23;2.40;;;10.00;99.90;;;;;;5062762;28;20040;-63
2023/11/20 06:29:06;;;;;;;9.90;2.05;;;10.10;99.90;;;;;;5071942;28;20036;-64
2023/11/20 06:31:31;;;;;;;10.43;2.17;;;10.10;99.90;;;;;;5046434;28;20054;-63
2023/11/20 06:33:57;;;;;;;13.05;2.60;;;10.10;99.90;;;;;;5039989;28;20099;-64
2023/11/20 06:36:22;;;;;;;11.75;2.10;;;10.10;99.90;;;;;;5047645;28;20136;-65
2023/11/20 06:38:48;;;;;;;14.70;2.25;;;10.20;99.90;;;;;;5041322;28;20041;-68
2023/11/20 06:41:21;;;;;;;8.48;1.80;;;10.20;99.90;;;;;;5048231;28;20049;-66
2023/11/20 06:43:47;;;;;;;14.35;2.08;;;10.20;99.90;;;;;;5052192;28;20041;-65
2023/11/20 06:46:21;;;;;;;17.92;2.30;;;10.20;99.90;;;;;;5041116;28;20025;-63
2023/11/20 06:48:47;;;;;;;14.40;2.00;;;10.20;99.90;;;;;;5032743;28;20060;-63
2023/11/20 06:51:14;;;;;;;10.30;1.90;;;10.30;99.90;;;;;;5032842;28;20107;-64
2023/11/20 06:53:39;;;;;;;10.38;1.75;;;10.40;99.90;;;;;;5060133;28;20074;-65
2023/11/20 06:56:05;;;;;;;8.20;1.75;;;10.40;99.90;;;;;;5052536;28;20027;-65
2023/11/20 06:58:35;;;;;;;9.32;2.38;;;10.40;99.90;;;;;;5051564;28;20099;-65
2023/11/20 07:01:03;;;;;;;8.52;1.95;;;10.40;99.90;;;;;;5051269;28;20033;-65
2023/11/20 07:03:28;;;;;;;12.38;2.40;;;10.40;99.90;;;;;;5057837;28;20097;-65
2023/11/20 07:05:54;;;;;;;10.25;2.28;;;10.30;99.90;;;;;;5071434;28;20025;-65
2023/11/20 07:08:21;;;;;;;13.65;2.83;;;10.40;99.90;;;;;;5060130;28;20136;-64
2023/11/20 07:10:48;;;;;;;12.68;2.22;;;10.40;99.90;;;;;;5037404;28;20034;-68
2023/11/20 07:13:14;;;;;;;13.07;2.20;;;10.40;99.90;;;;;;5030941;28;20454;-68
2023/11/20 07:15:39;;;;;;;10.73;2.15;;;10.50;99.90;;;;;;5031330;28;20467;-67
2023/11/20 07:18:08;;;;;;;7.43;1.58;;;10.50;99.90;;;;;;5049861;28;20067;-68
2023/11/20 07:20:35;;;;;;;10.52;2.28;;;10.60;99.90;;;;;;5045879;28;20102;-67
2023/11/20 07:23:03;;;;;;;12.32;1.58;;;10.60;99.90;;;;;;5051579;28;20063;-66
2023/11/20 07:25:34;;;;;;;9.48;1.85;;;10.60;99.90;;;;;;5050941;28;20025;-66
2023/11/20 07:28:01;;;;;;;10.65;2.22;;;10.60;99.90;;;;;;5050850;28;20403;-66
2023/11/20 07:30:27;;;;;;;12.27;2.22;;;10.70;99.90;;;;;;5050841;28;20029;-66
2023/11/20 07:32:55;;;;;;;9.18;1.85;;;10.70;99.90;;;;;;5051013;28;20373;-64
2023/11/20 07:35:20;;;;;;;16.48;2.50;;;10.80;99.90;;;;;;5049961;28;20033;-66
2023/11/20 07:37:46;;;;;;;12.40;2.38;;;11.00;99.90;;;;;;5046263;28;20037;-66
2023/11/20 07:40:12;;;;;;;11.88;2.80;;;11.00;99.90;;;;;;5029834;28;20029;-66
2023/11/20 07:42:38;;;;;;;10.32;1.98;;;11.00;99.90;;;;;;5030847;28;20030;-65
2023/11/20 07:45:05;;;;;;;9.00;1.73;;;11.10;99.90;;;;;;5045393;28;20120;-68
2023/11/20 07:47:31;;;;;;;14.80;2.45;;;11.10;99.90;;;;;;5049959;28;20443;-67
2023/11/20 07:49:56;;;;;;;8.30;2.10;;;11.20;99.90;;;;;;5049901;28;20104;-65
2023/11/20 07:52:22;;;;;;;10.80;2.03;;;11.30;99.90;;;;;;5036803;28;20067;-66
2023/11/20 07:54:48;;;;;;;9.82;2.08;;;11.40;99.90;;;;;;5042881;28;20040;-66
2023/11/20 07:57:15;;;;;;;14.60;2.10;;;11.40;99.90;;;;;;5043920;28;20025;-67
2023/11/20 07:59:41;;;;;;;8.93;1.80;;;11.40;99.90;;;;;;5051391;28;20028;-66
2023/11/20 08:02:08;;;;;;;6.60;1.73;;;11.40;99.90;;;;;;5047416;28;20044;-66
2023/11/20 08:04:34;;;;;;;12.27;2.03;;;11.40;99.90;;;;;;5040557;28;20032;-67
2023/11/20 08:07:00;;;;;;;9.77;1.88;;;11.40;99.90;;;;;;5041490;28;20136;-67
2023/11/20 08:09:26;;;;;;;13.00;2.08;;;11.40;99.90;;;;;;5046224;28;20021;-67
2023/11/20 08:11:52;;;;;;;12.63;1.98;;;11.40;99.90;;;;;;5049566;28;20055;-68
2023/11/20 08:14:18;;;;;;;14.70;2.53;;;11.50;99.90;;;;;;5048885;28;20033;-67
2023/11/20 08:16:44;;;;;;;15.30;2.17;;;11.50;99.90;;;;;;5049014;28;20082;-67
2023/11/20 08:19:10;;;;;;;12.65;2.28;;;11.50;99.90;;;;;;5048707;28;20101;-67
2023/11/20 08:21:36;;;;;;;12.70;2.40;;;11.50;99.90;;;;;;5054559;28;20113;-67
2023/11/20 08:24:02;;;;;;;14.18;2.13;;;11.50;99.90;;;;;;5060802;28;20035;-67
2023/11/20 08:26:27;;;;;;;10.48;1.77;;;11.60;99.90;;;;;;5047239;28;20445;-66
2023/11/20 08:28:53;;;;;;;13.10;2.22;;;11.50;99.90;;;;;;5040953;28;20124;-67
2023/11/20 08:31:19;;;;;;;10.55;2.20;;;11.50;99.90;;;;;;5047758;28;20044;-67
2023/11/20 08:33:45;;;;;;;12.88;2.03;;;11.50;99.90;;;;;;5038045;28;20470;-67
2023/11/20 08:36:10;;;;;;;11.20;1.92;;;11.50;99.90;;;;;;5039188;28;20463;-66
2023/11/20 08:38:36;;;;;;;10.40;1.90;;;11.50;99.90;;;;;;5049902;28;20035;-67
2023/11/20 08:41:02;;;;;;;11.90;2.20;;;11.60;99.90;;;;;;5055345;28;20051;-68
2023/11/20 08:43:27;;;;;;;16.45;2.92;;;11.60;99.90;;;;;;5048629;28;20031;-67
2023/11/20 08:45:56;;;;;;;9.00;1.83;;;11.60;99.90;;;;;;5040446;28;20028;-67
2023/11/20 08:48:22;;;;;;;15.60;2.72;;;11.60;99.90;;;;;;5048693;28;20052;-67
2023/11/20 08:50:47;;;;;;;7.20;1.42;;;11.60;99.90;;;;;;5037728;28;20029;-67
2023/11/20 08:53:13;;;;;;;14.20;1.83;;;11.60;99.90;;;;;;5049481;28;20025;-67
2023/11/20 08:55:38;;;;;;;8.35;1.27;;;11.60;99.90;;;;;;5053034;28;20437;-67
2023/11/20 08:58:04;;;;;;;8.15;1.70;;;11.60;99.90;;;;;;5052427;28;20367;-66
2023/11/20 09:00:30;;;;;;;12.07;1.83;;;11.60;99.90;;;;;;5053572;28;20025;-66
2023/11/20 09:02:56;;;;;;;13.95;2.15;;;11.60;99.90;;;;;;5052973;28;20049;-66
2023/11/20 09:05:22;;;;;;;9.07;1.92;;;11.60;99.90;;;;;;5051593;28;20606;-66
2023/11/20 09:07:48;;;;;;;7.50;1.70;;;11.50;99.90;;;;;;5053096;28;20104;-66
2023/11/20 09:10:13;;;;;;;18.05;2.55;;;11.50;99.90;;;;;;5051520;28;20028;-66
2023/11/20 09:12:41;;;;;;;15.18;2.20;;;11.50;99.90;;;;;;5052883;28;20036;-66
2023/11/20 09:15:08;;;;;;;10.27;2.28;;;11.50;99.90;;;;;;5051347;28;20033;-66
2023/11/20 09:17:36;;;;;;;11.52;2.17;;;11.50;99.90;;;;;;5052264;28;20048;-66
2023/11/20 09:20:02;;;;;;;9.70;2.03;;;11.50;99.90;;;;;;5040444;28;20037;-66
2023/11/20 09:22:28;;;;;;;9.43;1.73;;;11.70;99.90;;;;;;5052094;28;20040;-66
2023/11/20 09:24:53;;;;;;;11.27;1.92;;;11.70;99.90;;;;;;5052428;28;20025;-65
2023/11/20 09:27:20;;;;;;;13.80;2.15;;;11.70;99.90;;;;;;5050229;28;20052;-66
2023/11/20 09:29:45;;;;;;;12.80;2.40;;;11.70;99.90;;;;;;5052090;28;20354;-66
2023/11/20 09:32:11;;;;;;;9.75;1.98;;;11.70;99.90;;;;;;5050180;28;20039;-66
2023/11/20 09:34:38;;;;;;;12.93;1.88;;;11.80;99.90;;;;;;5050219;28;20064;-66
2023/11/20 09:37:04;;;;;;;7.97;1.75;;;11.80;99.90;;;;;;5043068;28;20472;-66
2023/11/20 09:39:30;;;;;;;12.15;2.13;;;11.80;99.90;;;;;;5045727;28;20021;-66
2023/11/20 09:41:55;;;;;;;7.53;2.13;;;11.90;99.90;;;;;;5048422;28;20029;-66
2023/11/20 09:44:27;;;;;;;6.40;1.50;;;12.00;99.90;;;;;;5043620;28;20114;-66
2023/11/20 09:46:55;;;;;;;13.95;1.98;;;12.10;99.90;;;;;;5051721;28;20067;-66
2023/11/20 09:49:30;;;;;;;11.23;1.85;;;12.20;99.90;;;;;;5044119;28;20481;-68
2023/11/20 09:51:58;;;;;;;9.95;2.17;;;12.30;99.90;;;;;;5051838;28;20423;-66
2023/11/20 09:54:24;;;;;;;7.22;1.50;;;12.40;99.90;;;;;;5037023;28;20056;-66
2023/11/20 09:56:51;;;;;;;10.48;1.65;;;12.60;99.90;;;;;;5051572;28;20082;-65
2023/11/20 09:59:16;;;;;;;11.23;2.53;;;12.70;99.90;;;;;;5050967;28;20071;-66
2023/11/20 10:01:44;;;;;;;10.35;1.63;;;12.70;99.90;;;;;;5046103;28;20064;-66
2023/11/20 10:04:15;;;;;;;12.57;2.13;;;12.70;99.90;;;;;;5050953;28;20033;-66
2023/11/20 10:06:44;;;;;;;13.88;1.73;;;12.80;99.90;;;;;;5051139;28;20554;-66
2023/11/20 10:09:12;;;;;;;9.18;2.50;;;13.00;99.90;;;;;;5050661;28;20032;-66
2023/11/20 10:11:41;;;;;;;8.95;1.85;;;13.20;99.90;;;;;;5057691;28;20115;-66
2023/11/20 10:14:06;;;;;;;9.90;1.80;;;13.40;99.90;;;;;;5053319;28;20108;-66
2023/11/20 10:16:35;;;;;;;10.00;1.90;;;13.50;99.90;;;;;;5050425;28;20152;-67
2023/11/20 10:19:01;;;;;;;7.38;1.70;;;13.60;99.90;;;;;;5051240;28;20060;-65
2023/11/20 10:21:29;;;;;;;10.13;2.22;;;13.70;99.90;;;;;;5051484;28;20025;-66
2023/11/20 10:23:55;;;;;;;10.93;2.50;;;13.70;99.90;;;;;;5053734;28;20470;-68
2023/11/20 10:26:24;;;;;;;8.73;2.00;;;13.70;99.90;;;;;;5049996;28;20056;-66
2023/11/20 10:28:50;;;;;;;8.75;1.98;;;13.60;99.90;;;;;;5051683;28;20108;-65
2023/11/20 10:31:16;;;;;;;10.75;2.13;;;13.60;99.90;;;;;;5050368;28;20107;-65
2023/11/20 10:33:43;;;;;;;9.32;2.08;;;13.50;99.90;;;;;;5051714;28;20033;-66
2023/11/20 10:36:16;;;;;;;8.65;1.58;;;13.20;99.90;;;;;;5049774;28;20044;-66
2023/11/20 10:38:43;;;;;;;10.07;2.10;;;12.70;99.90;;;;;;5051644;28;20033;-65
2023/11/20 10:41:09;;;;;;;8.10;1.67;;;12.30;99.90;;;;;;5049714;28;20037;-66
2023/11/20 10:43:38;;;;;;;11.57;2.20;;;12.00;99.90;;;;;;5051764;28;20116;-66
2023/11/20 10:46:05;;;;;;;9.20;1.77;;;11.70;99.90;;;;;;5049649;28;20033;-67
2023/11/20 10:48:38;;;;;;;8.85;1.67;;;11.60;99.90;;;;;;5051310;28;20031;-65
2023/11/20 10:51:12;;;;;;;10.70;1.80;;;11.40;99.90;;;;;;5050021;28;20057;-65
2023/11/20 10:53:38;;;;;;;6.43;1.50;;;11.30;99.90;;;;;;5051232;28;20462;-65
2023/11/20 10:56:06;;;;;;;9.05;1.85;;;11.20;99.90;;;;;;5049889;28;20029;-65
2023/11/20 10:58:32;;;;;;;9.98;1.88;;;11.10;99.90;;;;;;5050938;28;20070;-66
2023/11/20 11:00:58;;;;;;;10.05;1.65;;;10.90;99.90;;;;;;5050184;28;20084;-66
2023/11/20 11:03:27;;;;;;;7.93;1.40;;;10.80;99.90;;;;;;5032697;28;20037;-66
2023/11/20 11:05:54;;;;;;;8.68;1.60;;;10.60;99.90;;;;;;5050904;28;20025;-65
2023/11/20 11:08:22;;;;;;;9.90;1.52;;;10.30;99.90;;;;;;5050117;28;20032;-65
2023/11/20 11:10:48;;;;;;;9.30;1.60;;;10.00;99.90;;;;;;5050636;28;20086;-65
2023/11/20 11:13:18;;;;;;;6.30;1.48;;;9.80;99.90;;;;;;5047616;28;20039;-68
2023/11/20 11:15:48;;;;;;;7.60;1.75;;;9.60;99.90;;;;;;5058568;28;20024;-66
2023/11/20 11:18:23;;;;;;;7.13;1.80;;;9.50;99.90;;;;;;5050051;28;20076;-66
2023/11/20 11:20:53;;;;;;;10.02;2.08;;;9.50;99.90;;;;;;5055831;28;20037;-66
2023/11/20 11:23:28;;;;;;;8.65;1.30;;;9.50;99.90;;;;;;5050231;28;20052;-66
2023/11/20 11:26:18;;;;;;;14.02;2.03;;;9.70;99.90;;;;;;5050943;28;20036;-65
2023/11/20 11:28:51;;;;;;;11.27;2.10;;;9.70;99.90;;;;;;5050628;28;20108;-66
2023/11/20 11:31:20;;;;;;;8.98;2.00;;;9.90;99.90;;;;;;5049107;28;20112;-66
2023/11/20 11:34:02;;;;;;;12.85;2.55;;;9.90;99.90;;;;;;5063593;28;20363;-66
2023/11/20 11:36:32;;;;;;;17.23;2.55;;;10.00;99.90;;;;;;5034894;28;20025;-65
2023/11/20 11:39:03;;;;;;;;;;;10.10;99.90;;;;;;5051216;28;20032;-66
2023/11/20 11:42:03;;;;;;;11.73;2.25;;;10.20;99.90;;;;;;5050184;28;19913;-66
2023/11/20 11:44:41;;;;;;;6.43;1.70;;;10.40;99.90;;;;;;5035922;28;20484;-68
2023/11/20 11:47:10;;;;;;;3.05;1.10;;;10.50;99.90;;;;;;5038565;28;20418;-67
2023/11/20 11:49:37;;;;;;;10.80;2.27;;;10.50;99.90;;;;;;5051113;28;20118;-65
2023/11/20 11:52:06;;;;;;;3.20;1.25;;;10.60;99.90;;;;;;5049374;28;20610;-65
2023/11/20 11:54:32;;;;;;;5.43;0.90;;;10.60;99.90;;;;;;5051177;28;20040;-65
2023/11/20 11:57:21;;;;;;;5.00;0.90;;;10.50;99.90;;;;;;5050017;28;20531;-65
2023/11/20 11:59:49;;;;;;;2.63;0.63;;;10.50;99.90;;;;;;5050946;28;20028;-65
2023/11/20 12:02:18;;;;;;;2.95;0.57;;;10.60;99.90;;;;;;5048995;28;20033;-65
2023/11/20 12:04:55;;;;;;;2.28;0.65;;;10.60;99.90;;;;;;5050767;28;20029;-64
2023/11/20 12:07:36;;;;;;;4.65;0.77;;;10.70;99.90;;;;;;5048841;28;20056;-65
2023/11/20 12:10:04;;;;;;;1.85;0.82;;;10.80;99.90;;;;;;5048368;28;20136;-65
2023/11/20 12:12:45;;;;;;;3.05;0.52;;;10.90;99.90;;;;;;5050504;28;20434;-64
2023/11/20 12:15:29;;;;;;;1.67;0.47;;;11.10;99.90;;;;;;5049070;28;20028;-65
2023/11/20 12:17:58;;;;;;;2.08;0.60;;;11.20;99.90;;;;;;5051830;28;20052;-65
2023/11/20 12:20:27;;;;;;;3.47;0.50;;;11.30;99.90;;;;;;5048171;28;20044;-66
2023/11/20 12:22:53;;;;;;;2.45;0.65;;;11.50;99.90;;;;;;5050400;28;20064;-66
2023/11/20 12:25:20;;;;;;;2.72;0.50;;;11.70;99.90;;;;;;5048466;28;20024;-66
2023/11/20 12:27:46;;;;;;;1.75;0.63;;;11.70;99.90;;;;;;5060775;28;20028;-67
2023/11/20 12:30:12;;;;;;;2.95;0.60;;;11.80;99.90;;;;;;5061936;28;20434;-67
2023/11/20 12:32:37;;;;;;;3.88;0.73;;;11.90;99.90;;;;;;5054708;28;20056;-66
2023/11/20 12:35:03;;;;;;;5.95;1.65;;;11.90;99.90;;;;;;5059428;28;20029;-67
2023/11/20 12:37:31;;;;;;;4.82;0.70;;;11.90;99.90;;;;;;5056321;28;20032;-67
2023/11/20 12:39:58;;;;;;;3.78;1.17;;;11.80;99.90;;;;;;5057812;28;20456;-67
2023/11/20 12:42:25;;;;;;;2.72;0.77;;;11.80;99.90;;;;;;5053289;28;20082;-67
2023/11/20 12:44:51;;;;;;;2.75;0.93;;;11.60;99.90;;;;;;5051972;28;20526;-67
2023/11/20 12:47:18;;;;;;;4.05;0.88;;;11.40;99.90;;;;;;5048665;28;20103;-67
2023/11/20 12:49:44;;;;;;;4.18;0.70;;;11.10;99.90;;;;;;5036566;28;20121;-67